Time;durP1;ratioP1;P1;durP2;ratioP2;P2;SDS_P1;SDS_P2;PMS_P1;PMS_P2;Temp;Humidity;BMP_temperature;BMP_pressure;BME280_temperature;BME280_humidity;BME280_pressure;Samples;Min_cycle;Max_cycle;Signal;HPM_P1;HPM_P2
2021/05/23 00:00:59;;;;;;;0.55;0.55;;;10.40;73.10;;;13.67;58.75;100885.72;5048288;27;97138;-68
2021/05/23 00:03:30;;;;;;;0.32;0.32;;;10.30;73.10;;;13.63;58.54;100885.56;5047005;27;96852;-68
2021/05/23 00:05:58;;;;;;;0.52;0.52;;;10.30;73.00;;;13.63;58.55;100877.50;5050213;27;96989;-67
2021/05/23 00:08:28;;;;;;;0.35;0.35;;;10.30;73.10;;;13.60;58.59;100890.81;5015439;27;98286;-67
2021/05/23 00:11:00;;;;;;;0.70;0.70;;;10.30;73.10;;;13.58;58.80;100888.44;5029030;27;98668;-68
2021/05/23 00:13:38;;;;;;;2.28;0.40;;;10.30;73.10;;;13.58;58.67;100887.66;5028543;27;97582;-68
2021/05/23 00:16:12;;;;;;;0.10;0.10;;;10.30;73.10;;;13.55;58.95;100885.59;5042980;27;97214;-68
2021/05/23 00:18:45;;;;;;;1.00;0.50;;;10.30;73.10;;;13.52;58.90;100888.91;5041905;27;97076;-68
2021/05/23 00:21:18;;;;;;;0.75;0.68;;;10.30;73.10;;;13.55;58.58;100885.59;5047413;27;97769;-67
2021/05/23 00:23:46;;;;;;;1.38;1.27;;;10.30;73.10;;;13.52;58.99;100887.00;5029925;27;96903;-67
2021/05/23 00:26:15;;;;;;;0.40;0.38;;;10.20;73.10;;;13.47;58.66;100886.38;5043929;27;96996;-68
2021/05/23 00:28:44;;;;;;;0.00;0.00;;;10.20;73.10;;;13.45;58.68;100881.31;5028602;27;97793;-67
2021/05/23 00:31:22;;;;;;;1.63;0.95;;;10.20;73.10;;;13.31;58.96;100885.25;5049306;27;96801;-67
2021/05/23 00:33:50;;;;;;;8.20;0.95;;;10.10;73.00;;;13.28;59.16;100880.50;5044659;27;96900;-69
2021/05/23 00:36:18;;;;;;;0.05;0.05;;;10.10;73.10;;;13.22;58.85;100884.47;5024329;27;97310;-68
2021/05/23 00:38:47;;;;;;;0.10;0.10;;;10.00;73.10;;;13.15;59.31;100886.81;5047324;27;98314;-68
2021/05/23 00:41:15;;;;;;;0.52;0.52;;;10.00;73.10;;;13.12;59.31;100879.38;5046553;27;98457;-68
2021/05/23 00:43:44;;;;;;;1.33;0.90;;;10.00;73.20;;;13.08;59.40;100891.88;5045610;27;96984;-68
2021/05/23 00:46:12;;;;;;;0.47;0.47;;;9.90;73.20;;;13.02;59.36;100890.44;5027572;27;97287;-67
2021/05/23 00:48:41;;;;;;;0.73;0.73;;;9.90;73.30;;;13.00;59.66;100890.75;5045710;27;97264;-67
2021/05/23 00:51:09;;;;;;;0.52;0.47;;;9.80;73.30;;;13.02;59.45;100890.44;5043531;27;97742;-67
2021/05/23 00:53:37;;;;;;;1.02;0.70;;;9.80;73.30;;;12.99;59.76;100888.38;5044222;27;96927;-67
2021/05/23 00:56:06;;;;;;;0.20;0.17;;;9.80;73.40;;;13.03;59.31;100900.09;5036486;27;96785;-68
2021/05/23 00:58:34;;;;;;;0.75;0.45;;;9.80;73.40;;;13.03;59.23;100889.34;5044188;27;97828;-68
2021/05/23 01:02:29;;;;;;;0.65;0.47;;;9.80;73.40;;;13.00;59.20;100898.03;5045529;27;97129;-67
2021/05/23 01:04:59;;;;;;;0.55;0.55;;;9.80;73.50;;;12.97;58.82;100901.34;5026990;27;97267;-67
2021/05/23 01:07:30;;;;;;;0.10;0.10;;;9.70;73.70;;;12.99;58.93;100891.06;5047372;27;98077;-67
2021/05/23 01:10:09;;;;;;;22.13;1.02;;;9.70;73.40;;;12.97;58.92;100901.34;5029264;27;97233;-68
2021/05/23 01:14:18;;;;;;;0.15;0.15;;;9.70;73.40;;;12.94;59.16;100894.69;5025937;27;96789;-67
2021/05/23 01:16:52;;;;;;;0.10;0.10;;;9.70;73.50;;;12.95;58.82;100900.88;5034813;27;96968;-67
2021/05/23 01:19:45;;;;;;;2.22;0.70;;;9.70;73.40;;;12.92;58.65;100899.59;5041172;27;96954;-67
2021/05/23 01:22:22;;;;;;;0.28;0.28;;;9.70;73.50;;;12.89;59.37;100904.75;5027048;27;96923;-68
2021/05/23 01:25:04;;;;;;;0.52;0.52;;;9.70;73.50;;;12.89;59.48;100899.38;5046617;27;96854;-67
2021/05/23 01:27:36;;;;;;;8.30;2.67;;;9.70;73.50;;;12.89;59.27;100904.75;5028964;27;96916;-68
2021/05/23 01:30:10;;;;;;;0.40;0.40;;;9.70;73.50;;;12.82;59.46;100905.25;5042233;27;103538;-67
2021/05/23 01:32:44;;;;;;;12.55;1.85;;;9.60;73.40;;;12.84;58.89;100907.59;5042915;27;97448;-67
2021/05/23 01:35:17;;;;;;;0.65;0.65;;;9.60;73.50;;;12.77;58.92;100907.28;5027516;27;97965;-67
2021/05/23 01:37:51;;;;;;;0.43;0.40;;;9.60;73.50;;;12.73;59.48;100909.00;5029551;27;97105;-67
2021/05/23 01:40:21;;;;;;;0.55;0.55;;;9.60;73.50;;;12.71;59.42;100909.28;5043997;27;97473;-68
2021/05/23 01:42:50;;;;;;;20.63;0.57;;;9.60;73.40;;;12.66;59.19;100912.13;5027590;27;98458;-67
2021/05/23 01:45:19;;;;;;;0.65;0.65;;;9.50;73.40;;;12.64;59.58;100910.88;5044575;27;96768;-67
2021/05/23 01:47:47;;;;;;;0.20;0.20;;;9.50;73.40;;;12.61;59.42;100906.91;5026170;27;96991;-67
2021/05/23 01:50:17;;;;;;;0.20;0.20;;;9.50;73.50;;;12.56;59.21;100916.97;5048352;27;97177;-67
2021/05/23 01:52:49;;;;;;;0.38;0.38;;;9.40;73.50;;;12.50;59.29;100910.16;5026134;27;96980;-67
2021/05/23 01:55:20;;;;;;;0.45;0.22;;;9.40;73.50;;;12.45;59.29;100915.69;5047146;27;97739;-68
2021/05/23 01:57:49;;;;;;;0.22;0.22;;;9.40;73.50;;;12.40;60.12;100915.00;5029778;27;97334;-67
2021/05/23 02:00:22;;;;;;;0.38;0.38;;;9.30;73.50;;;12.32;60.11;100921.94;5049109;27;96958;-67
2021/05/23 02:02:50;;;;;;;0.52;0.47;;;9.30;73.50;;;12.28;60.27;100923.63;5031203;27;96876;-67
2021/05/23 02:05:22;;;;;;;2.25;0.90;;;9.20;73.50;;;12.22;59.71;100932.94;5046195;27;96864;-67
2021/05/23 02:07:51;;;;;;;0.85;0.43;;;9.20;73.50;;;12.19;60.23;100930.88;5048305;27;96912;-67
2021/05/23 02:10:21;;;;;;;0.28;0.28;;;9.10;73.50;;;12.11;59.61;100933.50;5047007;27;96968;-67
2021/05/23 02:12:50;;;;;;;0.35;0.35;;;9.10;73.60;;;12.07;59.49;100941.38;5047021;27;98369;-67
2021/05/23 02:15:20;;;;;;;0.32;0.32;;;9.10;73.60;;;12.04;60.34;100946.56;5046181;27;97585;-67
2021/05/23 02:17:49;;;;;;;0.47;0.47;;;9.00;73.60;;;11.98;59.99;100948.56;5046676;27;97233;-68
2021/05/23 02:20:21;;;;;;;0.68;0.68;;;9.00;73.60;;;11.94;59.75;100941.44;5044797;27;98592;-67
2021/05/23 02:22:51;;;;;;;1.03;0.93;;;8.90;73.60;;;11.90;60.10;100945.84;5039139;27;97932;-67
2021/05/23 02:25:22;;;;;;;0.10;0.10;;;8.90;73.70;;;11.86;59.82;100951.03;5031518;27;97932;-67
2021/05/23 02:27:54;;;;;;;0.63;0.63;;;8.80;73.60;;;11.82;60.46;100950.03;5031649;27;96825;-68
2021/05/23 02:30:27;;;;;;;5.07;1.10;;;8.80;73.70;;;11.79;59.85;100947.97;5043576;27;96948;-67
2021/05/23 02:32:57;;;;;;;0.35;0.35;;;8.80;73.70;;;11.80;60.11;100949.56;5047443;27;99299;-67
2021/05/23 02:35:28;;;;;;;20.35;0.85;;;8.70;73.70;;;11.74;59.95;100948.09;5047066;27;97886;-68
2021/05/23 02:37:58;;;;;;;0.20;0.20;;;8.70;73.70;;;11.66;59.83;100945.34;5016011;27;97148;-67
2021/05/23 02:40:28;;;;;;;0.47;0.47;;;8.70;73.80;;;11.61;59.76;100943.53;5044894;27;96942;-68
2021/05/23 02:42:58;;;;;;;0.30;0.30;;;8.60;73.70;;;11.56;60.34;100949.03;5031010;27;97883;-67
2021/05/23 02:45:28;;;;;;;0.45;0.45;;;8.60;73.80;;;11.56;59.98;100949.03;5046658;27;97658;-67
2021/05/23 02:47:57;;;;;;;0.55;0.55;;;8.50;73.80;;;11.53;60.06;100962.22;5028470;27;96905;-67
2021/05/23 02:50:28;;;;;;;0.45;0.45;;;8.50;73.80;;;11.48;59.95;100952.41;5032561;27;97667;-67
2021/05/23 02:52:58;;;;;;;2.38;1.27;;;8.50;73.90;;;11.46;60.03;100959.97;5046857;27;98324;-67
2021/05/23 02:55:27;;;;;;;1.10;0.65;;;8.40;73.90;;;11.45;59.73;100955.69;5030012;27;97420;-67
2021/05/23 02:57:55;;;;;;;0.95;0.90;;;8.40;73.90;;;11.44;60.28;100947.94;5046649;27;96765;-67
2021/05/23 03:00:24;;;;;;;1.90;0.35;;;8.40;73.90;;;11.47;59.98;100948.13;5049908;27;96990;-67
2021/05/23 03:02:53;;;;;;;0.38;0.38;;;8.40;74.00;;;11.49;59.93;100951.31;5033888;27;98206;-67
2021/05/23 03:05:23;;;;;;;0.63;0.52;;;8.40;74.00;;;11.54;59.51;100951.19;5026787;27;97680;-67
2021/05/23 03:07:55;;;;;;;1.35;0.43;;;8.40;74.00;;;11.52;59.64;100956.06;5046741;27;96964;-68
2021/05/23 03:10:31;;;;;;;0.47;0.47;;;8.40;74.00;;;11.53;59.82;100962.22;5048593;27;97035;-67
2021/05/23 03:13:02;;;;;;;0.20;0.20;;;8.40;74.00;;;11.53;59.39;100954.16;5047839;27;96945;-67
2021/05/23 03:15:32;;;;;;;0.82;0.82;;;8.40;74.00;;;11.51;59.73;100953.69;5032044;27;97678;-67
2021/05/23 03:18:02;;;;;;;1.95;1.35;;;8.40;74.00;;;11.51;60.07;100962.53;5031300;27;96948;-67
2021/05/23 03:20:34;;;;;;;0.20;0.20;;;8.40;74.00;;;11.51;59.37;100959.03;5031758;27;97066;-67
2021/05/23 03:23:04;;;;;;;1.48;0.63;;;8.40;73.90;;;11.49;59.74;100959.38;5043369;27;98243;-67
2021/05/23 03:25:34;;;;;;;0.35;0.35;;;8.30;73.90;;;11.47;59.83;100966.91;5012818;27;97448;-67
2021/05/23 03:28:05;;;;;;;0.60;0.60;;;8.40;74.00;;;11.48;59.98;100971.19;5016970;27;97367;-67
2021/05/23 03:30:37;;;;;;;0.20;0.20;;;8.40;74.00;;;11.50;60.11;100985.09;5029332;27;97325;-69
2021/05/23 03:33:07;;;;;;;0.50;0.50;;;8.30;74.00;;;11.51;59.80;100985.88;5028397;27;98595;-67
2021/05/23 03:35:36;;;;;;;0.40;0.38;;;8.30;74.00;;;11.54;59.89;100977.22;5031334;27;96871;-68
2021/05/23 03:38:07;;;;;;;1.30;0.90;;;8.30;74.00;;;11.57;59.39;100977.44;5031659;27;96900;-67
2021/05/23 03:40:39;;;;;;;0.98;0.82;;;8.40;74.10;;;11.61;59.94;100980.34;5026307;27;96855;-68
2021/05/23 03:43:09;;;;;;;0.10;0.10;;;8.40;74.10;;;11.67;59.05;100982.59;5046865;27;98214;-67
2021/05/23 03:45:38;;;;;;;5.28;1.67;;;8.40;74.10;;;11.73;59.08;100978.72;5027547;27;97744;-68
2021/05/23 03:48:07;;;;;;;0.10;0.10;;;8.40;74.10;;;11.74;59.15;100985.69;5042658;27;96766;-67
2021/05/23 03:50:36;;;;;;;0.38;0.38;;;8.40;74.00;;;11.75;59.06;100987.25;5036233;27;97244;-67
2021/05/23 03:53:04;;;;;;;0.40;0.32;;;8.50;74.00;;;11.80;59.36;100992.50;5046916;27;96993;-67
2021/05/23 03:55:34;;;;;;;0.25;0.25;;;8.50;74.00;;;11.85;58.94;100992.38;5029818;27;98207;-67
2021/05/23 03:58:06;;;;;;;0.77;0.68;;;8.60;74.10;;;11.92;59.35;100994.66;5044560;27;96979;-67
2021/05/23 04:00:36;;;;;;;0.17;0.17;;;8.50;74.00;;;11.98;59.43;101002.28;5036053;27;97103;-67
2021/05/23 04:03:05;;;;;;;2.42;1.45;;;8.60;74.00;;;12.06;58.70;101001.56;5044336;27;97894;-67
2021/05/23 04:05:33;;;;;;;0.22;0.22;;;8.60;74.00;;;12.09;58.80;100998.28;5045059;27;98184;-68
2021/05/23 04:08:03;;;;;;;0.20;0.20;;;8.70;74.00;;;12.18;58.63;101014.47;5049738;27;96809;-67
2021/05/23 04:10:35;;;;;;;0.80;0.50;;;8.70;73.90;;;12.19;58.28;101016.81;5026802;27;96989;-67
2021/05/23 04:13:07;;;;;;;0.80;0.70;;;8.70;73.90;;;12.22;58.91;101020.81;5029402;27;98077;-67
2021/05/23 04:15:36;;;;;;;4.63;1.30;;;8.70;73.90;;;12.19;59.01;101011.44;5029036;27;97628;-68
2021/05/23 04:18:05;;;;;;;3.53;0.68;;;8.70;73.90;;;12.24;58.47;101016.69;5048153;27;97255;-67
2021/05/23 04:20:33;;;;;;;3.03;0.50;;;8.80;74.00;;;12.21;58.51;101011.94;5049034;27;97028;-67
2021/05/23 04:23:03;;;;;;;7.85;3.92;;;8.80;73.90;;;12.28;58.69;101014.97;5027805;27;96969;-67
2021/05/23 04:25:31;;;;;;;0.70;0.55;;;8.90;74.00;;;12.33;59.06;101014.88;5025466;27;98081;-67
2021/05/23 04:27:59;;;;;;;0.10;0.10;;;8.90;73.90;;;12.39;58.97;101019.03;5031634;27;96832;-68
2021/05/23 04:30:32;;;;;;;0.30;0.30;;;8.90;73.90;;;12.44;59.01;101029.66;5043961;27;97284;-68
2021/05/23 04:33:02;;;;;;;0.32;0.32;;;9.00;73.90;;;12.52;58.51;101029.72;5047725;27;97968;-67
2021/05/23 04:35:31;;;;;;;1.65;1.52;;;9.00;73.90;;;12.56;58.29;101027.19;5047869;27;97268;-67
2021/05/23 04:38:01;;;;;;;0.55;0.55;;;9.10;73.90;;;12.63;58.19;101035.63;5046069;27;96766;-68
2021/05/23 04:40:31;;;;;;;0.88;0.88;;;9.10;73.90;;;12.66;58.26;101038.47;5042254;27;96845;-67
2021/05/23 04:42:59;;;;;;;12.60;1.55;;;9.10;73.80;;;12.73;58.57;101044.19;5045388;27;97902;-67
2021/05/23 04:45:35;;;;;;;1.92;0.70;;;9.20;73.90;;;12.79;58.29;101040.31;5029097;27;96789;-68
2021/05/23 04:48:07;;;;;;;0.15;0.15;;;9.30;73.90;;;12.88;58.48;101040.31;5031345;27;96807;-68
2021/05/23 04:50:36;;;;;;;3.67;0.95;;;9.40;74.00;;;12.95;58.10;101035.34;5046604;27;97121;-68
2021/05/23 04:53:05;;;;;;;9.02;1.75;;;9.40;73.90;;;13.03;58.36;101045.34;5031443;27;98148;-67
2021/05/23 04:55:35;;;;;;;0.47;0.30;;;9.50;73.90;;;13.13;58.15;101042.38;5046160;27;98079;-68
2021/05/23 04:58:05;;;;;;;0.73;0.73;;;9.50;73.90;;;13.16;57.66;101037.19;5043739;27;97112;-68
2021/05/23 05:00:34;;;;;;;0.30;0.30;;;9.60;74.50;;;13.21;58.13;101038.91;5047396;27;97247;-68
2021/05/23 05:03:04;;;;;;;1.42;1.17;;;9.60;73.80;;;13.30;58.05;101048.59;5029954;27;98071;-67
2021/05/23 05:05:32;;;;;;;0.98;0.85;;;9.60;74.40;;;13.32;57.98;101053.69;5026061;27;97237;-67
2021/05/23 05:08:03;;;;;;;0.55;0.35;;;9.70;73.90;;;13.46;58.16;101046.28;5045826;27;97234;-67
2021/05/23 05:10:32;;;;;;;0.45;0.45;;;9.80;74.00;;;13.61;58.17;101049.34;5028378;27;96778;-67
2021/05/23 05:13:00;;;;;;;0.22;0.22;;;9.90;74.00;;;13.75;57.97;101054.59;5046162;27;97862;-69
2021/05/23 05:15:33;;;;;;;0.32;0.30;;;10.00;74.00;;;13.74;58.18;101058.38;5046306;27;96893;-68
2021/05/23 05:18:04;;;;;;;1.23;0.82;;;10.10;73.90;;;13.75;58.44;101057.28;5028595;27;98876;-68
2021/05/23 05:20:32;;;;;;;0.55;0.38;;;10.20;73.90;;;13.70;58.24;101054.75;5043297;27;97547;-68
2021/05/23 05:23:00;;;;;;;0.10;0.10;;;10.20;73.80;;;13.66;58.35;101040.31;5046349;27;97630;-68
2021/05/23 05:25:32;;;;;;;5.28;2.30;;;10.20;73.70;;;13.60;58.59;101049.66;5030178;27;99140;-67
2021/05/23 05:28:00;;;;;;;0.50;0.50;;;10.20;73.80;;;13.56;58.97;101046.78;5028758;27;96847;-67
2021/05/23 05:30:32;;;;;;;0.75;0.65;;;10.20;73.80;;;13.61;59.02;101052.03;5043191;27;97204;-67
2021/05/23 05:33:03;;;;;;;0.55;0.55;;;10.10;73.90;;;13.73;59.03;101048.72;5042613;27;98209;-67
2021/05/23 05:35:31;;;;;;;0.20;0.20;;;10.20;74.20;;;13.99;58.51;101063.81;5010532;27;96802;-68
2021/05/23 05:37:59;;;;;;;1.08;0.88;;;10.40;74.40;;;14.18;58.34;101061.63;5011672;27;99805;-68
2021/05/23 05:40:30;;;;;;;0.77;0.60;;;10.50;74.50;;;14.40;58.34;101064.16;5044979;27;97086;-67
2021/05/23 05:42:58;;;;;;;1.80;0.47;;;10.70;74.60;;;14.64;58.46;101067.94;5042068;27;97327;-68
2021/05/23 05:45:26;;;;;;;1.00;0.85;;;10.90;74.80;;;15.07;58.14;101073.22;5044899;27;97683;-68
2021/05/23 05:47:54;;;;;;;0.70;0.70;;;11.20;75.00;;;15.38;58.37;101079.97;5027526;27;96727;-68
2021/05/23 05:50:23;;;;;;;4.07;0.88;;;11.40;74.90;;;15.62;57.92;101074.75;5024450;27;97277;-68
2021/05/23 05:52:52;;;;;;;9.45;3.45;;;11.70;74.80;;;15.71;57.96;101073.56;5045335;27;96907;-68
2021/05/23 05:55:21;;;;;;;23.70;1.13;;;11.90;74.60;;;15.78;57.95;101071.16;5041752;27;97912;-68
2021/05/23 05:57:50;;;;;;;13.20;0.47;;;12.00;74.30;;;15.82;58.52;101074.00;5044171;27;97404;-68
2021/05/23 06:00:20;;;;;;;0.50;0.50;;;12.10;74.10;;;15.79;57.57;101072.75;5028456;27;97009;-68
2021/05/23 06:02:49;;;;;;;1.15;1.08;;;12.10;73.90;;;15.76;58.45;101078.00;5047617;27;98401;-68
2021/05/23 06:05:17;;;;;;;1.15;0.80;;;12.20;73.80;;;15.73;58.10;101078.66;5046070;27;97486;-68
2021/05/23 06:07:47;;;;;;;0.45;0.40;;;12.10;73.70;;;15.67;58.45;101077.28;5042279;27;96797;-67
2021/05/23 06:10:17;;;;;;;1.15;1.05;;;12.10;73.60;;;15.58;58.15;101073.81;5026572;27;97011;-68
2021/05/23 06:12:45;;;;;;;0.95;0.60;;;12.10;73.60;;;15.54;58.97;101083.69;5043463;27;98243;-69
2021/05/23 06:15:14;;;;;;;0.57;0.57;;;12.00;73.50;;;15.51;59.08;101084.34;5027062;27;97861;-68
2021/05/23 06:17:42;;;;;;;4.75;1.63;;;12.00;73.60;;;15.47;58.51;101083.41;5045079;27;99881;-68
2021/05/23 06:20:13;;;;;;;1.05;0.38;;;12.00;73.60;;;15.66;58.20;101085.69;5045445;27;97132;-68
2021/05/23 06:22:41;;;;;;;0.20;0.20;;;12.00;73.70;;;15.73;58.88;101082.13;5043542;27;96886;-68
2021/05/23 06:25:12;;;;;;;0.25;0.25;;;12.10;73.70;;;15.77;59.05;101085.00;5029331;27;97583;-68
2021/05/23 06:27:41;;;;;;;8.55;1.20;;;12.20;73.80;;;15.77;58.87;101088.50;5045510;27;96829;-68
2021/05/23 06:30:11;;;;;;;1.20;1.00;;;12.20;73.60;;;15.81;58.17;101084.03;5029857;27;97206;-68
2021/05/23 06:32:39;;;;;;;1.17;0.98;;;12.20;73.60;;;15.74;58.18;101094.53;5045943;27;97326;-68
2021/05/23 06:35:10;;;;;;;0.38;0.38;;;12.20;73.50;;;15.69;58.93;101096.66;5046875;27;96873;-68
2021/05/23 06:37:39;;;;;;;4.72;1.77;;;12.20;73.40;;;15.63;59.08;101097.16;5047149;27;97199;-68
2021/05/23 06:40:10;;;;;;;0.55;0.55;;;12.20;73.40;;;15.51;59.45;101103.25;5030011;27;97618;-68
2021/05/23 06:42:38;;;;;;;2.20;2.00;;;12.10;73.30;;;15.39;59.36;101108.56;5028048;27;98119;-68
2021/05/23 06:45:08;;;;;;;0.52;0.52;;;12.10;73.40;;;15.28;58.79;101112.69;5031429;27;98066;-68
2021/05/23 06:47:36;;;;;;;0.82;0.82;;;12.00;73.40;;;15.18;59.46;101115.72;5048553;27;96803;-68
2021/05/23 06:50:08;;;;;;;4.07;0.93;;;11.90;73.50;;;15.08;59.20;101120.69;5048829;27;97712;-68
2021/05/23 06:52:37;;;;;;;2.83;1.42;;;11.90;73.60;;;15.06;59.52;101125.63;5030093;27;97846;-68
2021/05/23 06:55:12;;;;;;;3.25;0.93;;;11.80;73.70;;;15.00;59.39;101121.50;5029287;27;97968;-68
2021/05/23 06:57:40;;;;;;;0.80;0.75;;;11.70;73.70;;;14.92;59.29;101120.41;5049547;27;96881;-68
2021/05/23 07:00:10;;;;;;;0.10;0.10;;;11.70;73.80;;;14.95;59.24;101133.25;5048462;27;96829;-68
2021/05/23 07:02:39;;;;;;;0.38;0.38;;;11.60;73.80;;;14.98;59.45;101129.13;5030536;27;98027;-68
2021/05/23 07:05:09;;;;;;;5.00;0.90;;;11.60;74.00;;;15.00;59.22;101133.06;5032142;27;96934;-68
2021/05/23 07:07:37;;;;;;;0.35;0.35;;;11.60;73.90;;;15.04;58.81;101128.66;5030260;27;96853;-68
2021/05/23 07:10:07;;;;;;;0.20;0.20;;;11.60;74.00;;;15.03;58.69;101129.75;5048832;27;97518;-68
2021/05/23 07:12:37;;;;;;;4.68;1.40;;;11.60;73.90;;;15.08;59.24;101131.47;5045783;27;97450;-68
2021/05/23 07:15:08;;;;;;;11.85;2.03;;;11.60;73.90;;;15.12;59.22;101127.81;5029622;27;98028;-68
2021/05/23 07:17:37;;;;;;;0.88;0.88;;;11.60;74.00;;;15.21;58.92;101127.81;5031050;27;96863;-68
2021/05/23 07:20:07;;;;;;;1.25;0.65;;;11.60;74.00;;;15.29;58.81;101130.47;5048316;27;96950;-68
2021/05/23 07:22:35;;;;;;;1.55;0.90;;;11.70;74.00;;;15.34;58.26;101132.22;5031817;27;97327;-68
2021/05/23 07:25:06;;;;;;;1.88;1.38;;;11.70;74.00;;;15.38;58.68;101123.16;5049932;27;97855;-68
2021/05/23 07:27:34;;;;;;;0.77;0.77;;;11.70;74.00;;;15.38;58.30;101128.56;5027226;27;98488;-68
2021/05/23 07:30:06;;;;;;;0.88;0.85;;;11.80;74.00;;;15.41;58.77;101127.13;5027083;27;96832;-68
2021/05/23 07:32:34;;;;;;;1.08;0.30;;;11.80;73.90;;;15.38;58.93;101128.56;5027496;27;97945;-67
2021/05/23 07:35:06;;;;;;;1.90;1.65;;;11.80;73.90;;;15.39;58.14;101129.34;5030163;27;98139;-68
2021/05/23 07:37:35;;;;;;;3.05;1.35;;;11.80;73.90;;;15.38;58.26;101125.88;5025910;27;97161;-68
2021/05/23 07:40:07;;;;;;;2.35;1.88;;;11.80;73.90;;;15.44;58.17;101127.28;5048659;27;97074;-68
2021/05/23 07:42:36;;;;;;;1.38;1.20;;;11.90;73.90;;;15.45;58.30;101128.84;5045372;27;97380;-68
2021/05/23 07:45:09;;;;;;;1.58;1.33;;;11.90;74.00;;;15.58;58.92;101122.44;5025235;27;98013;-68
2021/05/23 07:47:37;;;;;;;;;;;11.90;73.90;;;15.64;58.51;101125.75;5049472;27;96846;-68
2021/05/23 07:50:08;;;;;;;7.07;1.63;;;12.00;74.10;;;15.77;57.98;101130.91;5049048;27;96936;-67
2021/05/23 07:52:37;;;;;;;1.83;1.73;;;12.10;74.00;;;15.75;58.12;101138.56;5048466;27;97942;-68
2021/05/23 07:55:07;;;;;;;9.52;2.83;;;12.20;74.10;;;15.72;58.14;101148.09;5045514;27;97701;-69
2021/05/23 07:57:36;;;;;;;1.35;1.25;;;12.20;73.90;;;15.72;58.09;101148.09;5039929;27;97427;-68
2021/05/23 08:00:08;;;;;;;5.50;1.90;;;12.20;73.90;;;15.77;58.86;101164.16;5038984;27;97085;-68
2021/05/23 08:02:37;;;;;;;1.63;1.33;;;12.30;74.50;;;15.80;58.39;101160.00;5023607;27;98233;-67
2021/05/23 08:05:08;;;;;;;0.32;0.32;;;12.30;73.80;;;15.82;58.50;101165.84;5042676;27;98087;-68
2021/05/23 08:07:36;;;;;;;1.10;0.95;;;12.30;73.80;;;15.78;59.09;101163.03;5044761;27;97716;-68
2021/05/23 08:10:07;;;;;;;1.40;1.00;;;12.40;73.80;;;15.77;59.23;101166.03;5042519;27;97159;-68
2021/05/23 08:12:36;;;;;;;3.28;1.52;;;12.40;73.70;;;15.70;59.04;101169.25;5045066;27;97427;-68
2021/05/23 08:15:08;;;;;;;1.80;1.63;;;12.30;73.60;;;15.61;59.37;101167.69;5043242;27;97616;-68
2021/05/23 08:17:37;;;;;;;2.58;0.93;;;12.30;73.60;;;15.49;59.23;101167.59;5029724;27;96887;-68
2021/05/23 08:20:15;;;;;;;2.15;1.13;;;12.30;73.70;;;15.48;59.07;101167.94;5043716;27;97209;-68
2021/05/23 08:22:43;;;;;;;0.68;0.55;;;12.20;73.70;;;15.40;59.69;101172.25;5046410;27;98297;-68
2021/05/23 08:25:14;;;;;;;1.75;1.35;;;12.20;73.80;;;15.35;59.90;101183.22;5044034;27;96905;-68
2021/05/23 08:27:43;;;;;;;0.35;0.35;;;12.10;73.70;;;15.32;59.55;101174.97;5041745;27;96829;-68
2021/05/23 08:30:15;;;;;;;0.77;0.68;;;12.10;73.80;;;15.30;59.80;101174.50;5009613;27;96893;-68
2021/05/23 08:32:43;;;;;;;1.23;1.13;;;12.00;73.80;;;15.22;59.77;101181.47;5047591;27;97983;-68
2021/05/23 08:35:13;;;;;;;0.95;0.60;;;12.00;73.90;;;15.12;59.89;101184.50;5025898;27;98247;-68
2021/05/23 08:37:42;;;;;;;1.58;1.30;;;11.90;73.90;;;15.09;59.62;101185.16;5031369;27;97348;-68
2021/05/23 08:40:12;;;;;;;2.60;1.80;;;11.80;73.90;;;15.08;59.73;101177.34;5043439;27;96753;-67
2021/05/23 08:42:40;;;;;;;1.38;1.27;;;11.80;74.20;;;15.18;60.27;101185.13;5024103;27;97433;-68
2021/05/23 08:45:11;;;;;;;1.27;1.15;;;11.80;74.40;;;15.37;59.64;101191.78;5026091;27;97939;-68
2021/05/23 08:47:44;;;;;;;7.82;2.55;;;11.90;74.50;;;15.51;59.31;101191.59;5024580;27;99887;-67
2021/05/23 08:50:25;;;;;;;4.38;1.70;;;12.00;74.50;;;15.62;59.20;101190.91;5044159;27;97100;-65
2021/05/23 08:52:57;;;;;;;1.42;1.27;;;12.10;74.40;;;15.68;58.61;101192.31;5037577;27;97142;-65
2021/05/23 08:55:27;;;;;;;3.35;2.03;;;12.10;74.30;;;15.72;58.64;101191.31;5022403;28;97850;-68
2021/05/23 08:57:59;;;;;;;30.58;1.33;;;12.20;74.30;;;15.70;58.55;101190.88;5004309;28;97666;-67
2021/05/23 09:00:30;;;;;;;4.18;2.20;;;12.20;74.10;;;15.78;58.68;101195.47;5022057;28;97482;-67
2021/05/23 09:03:03;;;;;;;1.60;1.48;;;12.30;74.10;;;15.86;58.93;101199.22;5022459;28;97433;-68
2021/05/23 09:05:38;;;;;;;1.45;1.38;;;12.30;74.10;;;16.00;58.94;101202.50;5009471;27;98105;-67
2021/05/23 09:08:14;;;;;;;3.85;1.30;;;12.40;74.80;;;16.14;58.72;101200.34;4999884;28;97683;-67
2021/05/23 09:10:44;;;;;;;1.80;0.93;;;12.50;74.20;;;16.26;58.10;101200.44;5004630;28;96859;-67
2021/05/23 09:13:26;;;;;;;2.80;2.20;;;12.50;74.20;;;16.39;58.01;101211.06;5003816;28;96839;-67
2021/05/23 09:16:04;;;;;;;6.68;2.30;;;12.70;74.20;;;16.62;58.19;101204.19;5001640;28;98727;-68
2021/05/23 09:18:41;;;;;;;1.60;0.95;;;12.80;74.30;;;17.10;57.14;101207.13;5000933;27;97669;-68
2021/05/23 09:21:12;;;;;;;2.55;1.27;;;13.00;74.50;;;17.58;57.04;101208.06;5001928;28;97155;-68
2021/05/23 09:23:49;;;;;;;5.93;2.63;;;13.30;74.60;;;17.96;56.19;101205.06;5002609;28;96911;-68
2021/05/23 09:26:22;;;;;;;0.80;0.80;;;13.60;74.50;;;18.11;56.45;101207.06;5019195;27;97405;-68
2021/05/23 09:28:53;;;;;;;1.88;1.50;;;13.90;74.30;;;18.14;57.31;101218.03;5003654;28;97834;-68
2021/05/23 09:31:24;;;;;;;2.15;1.75;;;14.10;73.90;;;18.03;57.15;101208.78;5001330;28;96823;-68
2021/05/23 09:33:54;;;;;;;0.75;0.63;;;14.10;73.60;;;17.98;57.90;101216.34;5000578;28;96719;-68
2021/05/23 09:36:24;;;;;;;1.27;1.17;;;14.20;73.50;;;17.93;57.65;101222.00;5000645;28;96961;-68
2021/05/23 09:38:59;;;;;;;2.22;0.95;;;14.20;73.40;;;17.75;57.91;101228.75;5000873;28;98473;-67
2021/05/23 09:41:31;;;;;;;2.85;2.25;;;14.10;73.20;;;17.65;58.51;101219.13;5000821;28;97325;-68
2021/05/23 09:44:14;;;;;;;0.63;0.50;;;14.10;73.30;;;17.52;58.21;101241.13;5001156;28;96893;-67
2021/05/23 09:46:55;;;;;;;2.85;2.03;;;14.00;73.30;;;17.38;58.97;101236.00;5004121;28;97905;-68
2021/05/23 09:49:24;;;;;;;0.47;0.47;;;14.00;73.30;;;17.31;58.84;101238.44;5002480;28;97641;-68
2021/05/23 09:51:56;;;;;;;7.93;2.70;;;13.90;73.40;;;17.37;58.77;101231.72;5001849;28;96864;-68
2021/05/23 09:54:27;;;;;;;5.53;2.47;;;13.90;73.60;;;17.43;58.58;101249.38;5018399;27;97036;-66
2021/05/23 09:56:57;;;;;;;0.52;0.47;;;13.90;73.50;;;17.60;59.01;101246.47;5002865;28;96888;-66
2021/05/23 09:59:29;;;;;;;0.93;0.93;;;14.00;73.60;;;17.94;58.31;101237.13;5001695;28;97840;-65
2021/05/23 10:02:06;;;;;;;2.67;1.42;;;14.10;74.50;;;18.43;56.97;101242.25;4989445;28;96826;-65
2021/05/23 10:04:36;;;;;;;0.90;0.88;;;14.30;74.00;;;18.57;56.91;101258.94;4988524;28;96872;-65
2021/05/23 10:07:08;;;;;;;1.40;1.00;;;14.50;73.60;;;18.43;57.25;101244.94;4991726;28;97875;-65
2021/05/23 10:09:39;;;;;;;1.23;0.77;;;14.60;73.20;;;18.15;57.83;101260.31;4989072;28;97273;-66
2021/05/23 10:12:14;;;;;;;7.75;1.00;;;14.50;73.00;;;17.95;58.64;101260.41;4985100;28;97118;-67
2021/05/23 10:14:42;;;;;;;12.38;1.67;;;14.50;72.90;;;17.75;59.03;101259.38;4988977;28;97186;-66
2021/05/23 10:17:10;;;;;;;0.38;0.38;;;14.40;72.90;;;17.68;58.64;101269.94;4988872;28;97892;-66
2021/05/23 10:19:39;;;;;;;4.43;0.60;;;14.30;73.00;;;17.82;59.00;101269.63;4987884;28;97807;-65
2021/05/23 10:22:08;;;;;;;5.05;0.98;;;14.30;73.20;;;18.00;58.26;101268.31;4984067;28;97855;-65
2021/05/23 10:24:42;;;;;;;0.98;0.70;;;14.30;73.40;;;18.13;58.26;101270.72;5005052;28;97496;-65
2021/05/23 10:27:16;;;;;;;1.25;0.68;;;14.40;73.60;;;18.33;58.43;101277.97;4988159;28;98187;-66
2021/05/23 10:29:50;;;;;;;1.08;0.95;;;14.60;73.60;;;18.54;57.95;101273.19;4987303;28;97801;-65
2021/05/23 10:32:22;;;;;;;1.30;0.40;;;14.70;73.50;;;18.72;58.02;101279.97;4988115;28;97118;-65